Oneonta, NY (13820)

7:11 PM EDT on September 02, 2014 (GMT -0400)
RainWise at Oneonta, NY 13820 | Change Station
CLOSE
Current Station
Personal Weather Station
Location: Oneonta, NY
Elevation: 1260 ft
Nearby Weather Stations
Active Advisory: Severe Thunderstorm Watch

Elev 1260 ft 42.46 °N, 75.06 °W | Updated 5 seconds ago

Partly Cloudy
Partly Cloudy
79.0 °F
Feels Like 83 °F
N
0.0
Wind Variable Wind from North
Gusts 6.0 mph

Today
High -- | Low -- °F
--% Chance of Precip.
Yesterday
High -- | Low -- °F
Precip. -- in
6:26 AM 7:32 PM
First Quarter, 56% visible
Pressure 29.78 in
Visibility 10.0 miles
Clouds Few 6500 ft
Scattered Clouds 11000 ft
Heat Index 83 °F
Dew Point 74 °F
Humidity 86%
Rainfall 0.00 in
Snow Depth Not available.
UV 0 out of 12
Pollen 5.60 out of 12
PM2.5 Good
Flu Activity Not available.
METAR KBGM 022253Z 21008KT 10SM FEW065 SCT110 25/19 A2981 RMK AO2 SLP082 T02500189

More Conditions Fewer Conditions

Pressure 29.78 in
Visibility 10.0 miles
Clouds Few 6500 ft
Scattered Clouds 11000 ft
Heat Index 83 °F
Dew Point 74 °F
Humidity 86%
Rainfall 0.00 in
Snow Depth Not available.
UV 0 out of 12
Pollen 5.60 out of 12
PM2.5 Good
Flu Activity Not available.
METAR KBGM 022253Z 21008KT 10SM FEW065 SCT110 25/19 A2981 RMK AO2 SLP082 T02500189

More Conditions Fewer Conditions

10-Day Weather Forecast

Almanac

Astronomy

Sep. 02, 2014 Rise Set
Actual Time 6:26 AM EDT 7:32 PM EDT
Civil Twilight 5:57 AM EDT 8:01 PM EDT
Nautical Twilight 5:22 AM EDT 8:35 PM EDT
Astronomical Twilight 4:46 AM EDT 9:12 PM EDT
Moon 2:17 PM EDT No Moon Set
Length of Visible Light 14h 04m
Length of Day
13h 06m
Tomorrow will be 2m 46s shorter.
First Quarter, 56% of the Moon is Illuminated
Today
First Quarter
Sep 8
Full
Sep 15
Last Quarter
Sep 24
New
Oct 1
First Quarter

Today's Extremes

State Highs State Lows

Community

WunderPhotos

Upload Photos

1,749,794 photos uploaded!

Nearby

Air Quality

  Air Quality AQ Index Pollutant
Yesterday Good
PM2.5
Yesterday Good
OZONE
Current Good
PM2.5
Tuesday Good
PM2.5
Tuesday Good
OZONE
Wednesday Good
OZONE
Wednesday Good
PM2.5

Snow Depth

Station Depth Elevation
No new snow has been reported.

Earthquake Activity

City Distance Mag. Time & Date
No recent earthquake activity has been reported nearby.
Minimum magnitude displayed is 2.5.

Coastal Water Temperatures

Place Temperature
No Stations Reporting

Nearby Weather Stations